Pemaquid Point Lighthouse, ME

43° 50' 13"N, 69° 30' 22"W, Elevation 40 ft.
Eastern Time

Hourly observations for the last 72 hours

Date Time Temperature (°F) Humi-
dity

(%)
Wind
(mph)
Pressure Rain (in) Sun
(W/m2)
UV ET
(in)
Air Dew 6 Hour 1 Hr 3 Hr 6 Hr Day
Alt
(in)
Sea
Level

(mb)
Max Min
2 18:00 44.9 43.0 93 N 9 G 16 29.41 996.0 0.18 1.03 14 0.0 0.024
2 17:00 44.4 42.5 93 N 8 G 15 29.40 995.7 0.12 0.42 0.86 44 0.0 0.023
2 16:00 43.8 41.6 92 N 10 G 21 29.40 995.8 0.15 0.73 44 0.0 0.021
2 15:00 42.9 40.7 92 NNW 12 G 24 29.41 995.8 0.15 0.58 62 0.0 0.019
2 14:00 42.4 40.2 42.4 38.6 92 NNW 12 G 27 29.42 996.2 0.09 0.20 0.30 0.43 128 0.9 0.016
2 13:00 41.5 39.4 92 N 12 G 29 29.43 996.8 0.06 0.34 81 0.6 0.014
2 12:00 40.9 38.5 91 N 12 G 27 29.45 997.3 0.05 0.28 127 0.8 0.011
2 11:00 40.2 37.8 91 N 12 G 32 29.46 997.6 0.06 0.10 0.23 127 0.8 0.009
2 10:00 39.7 37.3 91 N 13 G 26 29.48 998.5 0.03 0.17 88 0.5 0.007
2 09:00 39.4 37.0 91 N 13 G 24 29.50 999.0 0.01 0.14 86 0.0 0.005
2 08:00 38.7 36.6 38.7 37.3 92 N 7 G 23 29.51 999.3 0.02 0.08 0.11 0.13 83 0.0 0.004
2 07:00 38.1 35.7 91 N 11 G 19 29.53 999.9 0.04 0.11 16 0.0 0.003
2 06:00 38.0 35.6 91 NNW 9 G 17 29.52 999.8 0.02 0.07 0 0.0 0.003
2 05:00 37.9 35.5 91 N 8 G 18 29.54 1000.4 0.03 0.05 0 0.0 0.003
2 04:00 37.5 35.1 91 N 8 G 18 29.54 1000.4 0.02 0.05 0 0.0 0.003
2 03:00 37.4 35.0 91 N 8 G 21 29.57 1001.3 0.01 0.03 0 0.0 0.002
2 02:00 37.7 35.3 40.5 37.6 91 N 10 G 21 29.59 1002.1 0.05 0.09 0.02 0 0.0 0.001
2 01:00 37.8 35.1 90 N 12 G 23 29.63 1003.4 0.02 0.02 0 0.0 0.000
2 00:00 37.8 35.1 90 N 8 G 17 29.66 1004.6 0.03 0.07 0 0.0 0.065
1 23:00 38.0 35.0 89 N 9 G 18 29.68 1005.2 0.03 0.04 0.04 0 0.0 0.064
1 22:00 38.5 35.0 87 N 7 G 15 29.70 1005.8 0.01 0.01 0 0.0 0.063
1 21:00 39.7 34.7 82 N 9 G 19 29.71 1006.0 0.00 0 0.0 0.062
1 20:00 40.5 35.1 43.5 40.5 81 N 6 G 17 29.72 1006.6 0.00 0 0.0 0.061
1 19:00 41.6 35.3 78 N 10 G 18 29.72 1006.5 0.00 0 0.0 0.059
1 18:00 42.9 35.2 74 N 7 G 12 29.73 1006.8 0.00 51 0.0 0.057
1 17:00 43.1 35.4 74 N 7 G 16 29.74 1007.3 0.00 90 0.0 0.054
1 16:00 43.3 35.6 74 NNE 5 G 14 29.75 1007.3 0.00 178 0.8 0.050
1 15:00 43.0 35.6 75 NNE 7 G 14 29.75 1007.5 0.00 323 1.5 0.044
1 14:00 41.9 34.9 42.1 34.6 76 NNE 8 G 16 29.77 1008.1 0.00 246 1.5 0.039
1 13:00 41.4 34.4 76 NNE 12 G 17 29.79 1008.7 0.00 299 1.9 0.031
1 12:00 40.8 34.2 77 NNE 9 G 16 29.80 1009.2 0.00 461 2.8 0.023
1 11:00 39.1 32.5 77 NNE 9 G 14 29.83 1010.3 0.00 301 1.5 0.017
1 10:00 37.5 31.6 79 NNE 10 G 18 29.83 1010.3 0.00 309 1.3 0.012
1 09:00 36.2 30.3 79 NNE 10 G 19 29.85 1010.7 0.00 185 0.8 0.009
1 08:00 34.6 29.4 35.7 32.7 81 N 9 G 18 29.86 1011.1 0.00 104 0.0 0.007
1 07:00 33.8 28.3 80 N 4 G 11 29.88 1011.8 0.00 46 0.0 0.006
1 06:00 33.3 27.2 78 NNW 3 G 7 29.91 1012.7 0.00 0 0.0 0.005
1 05:00 33.4 26.7 76 NNW 4 G 8 29.89 1012.4 0.00 0 0.0 0.004
1 04:00 32.9 26.2 76 N 6 G 9 29.89 1012.3 0.00 0 0.0 0.003
1 03:00 34.0 27.2 76 N 6 G 14 29.91 1012.9 0.00 0 0.0 0.002
1 02:00 35.6 28.1 39.3 35.6 74 NNE 14 G 20 29.93 1013.6 0.00 0 0.0 0.001
1 01:00 38.0 32.7 81 NE 9 G 13 29.94 1014.0 0.00 0 0.0 0.000
1 00:00 38.5 32.9 80 E 12 G 14 29.95 1014.4 0.00 0 0.0 0.072
31 23:00 39.3 33.3 79 NE 7 G 9 29.98 1015.1 0.00 0 0.0 0.071
31 22:00 38.6 30.0 71 NNE 3 G 8 29.99 1015.5 0.00 0 0.0 0.070
31 21:00 37.9 29.7 72 NNW 6 G 12 29.98 1015.2 0.00 0 0.0 0.069
31 20:00 37.9 29.3 42.1 37.9 71 NNW 4 G 7 29.99 1015.5 0.00 0 0.0 0.068
31 19:00 40.0 29.2 65 N 6 G 8 30.00 1016.0 0.00 9 0.0 0.066
31 18:00 41.4 32.7 71 NNE 6 G 12 30.00 1016.1 0.00 239 0.0 0.063
31 17:00 40.3 32.7 74 NE 9 G 13 29.99 1015.7 0.00 160 0.6 0.058
31 16:00 39.9 31.6 72 NE 11 G 14 30.00 1015.8 0.00 251 1.1 0.046
31 15:00 40.8 30.7 67 N 9 G 20 29.99 1015.6 0.00 793 2.6 0.035
31 14:00 38.6 30.0 38.6 30.0 71 N 6 G 18 30.00 1015.9 0.00 807 3.5 0.024
31 13:00 35.2 28.1 75 N 11 G 23 30.03 1016.9 0.00 1053 4.1 0.016
31 12:00 32.4 26.0 77 NNE 8 G 13 30.05 1017.7 0.00 362 1.9 0.011
31 11:00 31.6 25.8 79 NNE 8 G 14 30.07 1018.4 0.00 276 1.4 0.007
31 10:00 30.8 25.7 81 N 8 G 14 30.08 1018.7 0.00 183 0.7 0.004
31 09:00 30.7 25.9 82 N 6 G 16 30.09 1018.9 0.00 153 0.5 0.002
31 08:00 30.0 25.8 33.1 30.0 84 N 6 G 13 30.08 1018.6 0.00 72 0.0 0.001
31 07:00 30.1 26.4 86 N 8 G 14 30.07 1018.4 0.00 19 0.0 0.000
31 06:00 30.4 27.0 87 N 9 G 14 30.06 1017.9 0.00 0 0.0 0.000
31 05:00 31.1 27.7 87 N 8 G 13 30.04 1017.4 0.00 0 0.0 0.000
31 04:00 31.6 28.5 88 N 6 G 12 30.03 1017.1 0.00 0 0.0 0.000
31 03:00 32.7 29.8 89 N 7 G 14 30.04 1017.4 0.00 0 0.0 0.000
31 02:00 33.0 30.1 34.1 32.9 89 N 10 G 16 30.05 1017.7 0.01 0.00 0 0.0 0.000
31 01:00 33.0 30.4 90 N 7 G 12 30.06 1017.8 0.00 0 0.0 0.000
31 00:00 33.1 30.8 91 N 5 G 14 30.05 1017.7 0.15 0 0.0 0.034
30 23:00 33.1 30.8 91 N 6 G 11 30.06 1018.0 0.01 0.15 0 0.0 0.034
30 22:00 33.2 30.6 90 NNW 7 G 11 30.06 1017.9 0.15 0 0.0 0.034
30 21:00 33.8 31.2 90 N 5 G 15 30.06 1018.0 0.01 0.15 0 0.0 0.033
30 20:00 33.9 31.3 37.1 33.9 90 NE 16 G 23 30.06 1018.0 0.01 0.02 0.05 0.14 0 0.0 0.032
30 19:00 35.2 32.6 90 NNE 14 G 24 30.04 1017.4 0.13 0 0.0 0.031

Data generated by WxSolution Version 1.9.1.8, Build 2020.02.16.